sensor_id;sensor_type;location;lat;lon;timestamp;P1;durP1;ratioP1;P2;durP2;ratioP2
19814;SDS011;10067;53.092;8.800;2023-12-20T00:01:37;17.40;;;3.00;;
19814;SDS011;10067;53.092;8.800;2023-12-20T00:04:03;19.37;;;3.47;;
19814;SDS011;10067;53.092;8.800;2023-12-20T00:06:30;18.77;;;2.93;;
19814;SDS011;10067;53.092;8.800;2023-12-20T00:08:56;16.10;;;2.67;;
19814;SDS011;10067;53.092;8.800;2023-12-20T00:11:23;10.80;;;2.73;;
19814;SDS011;10067;53.092;8.800;2023-12-20T00:13:49;18.43;;;2.97;;
19814;SDS011;10067;53.092;8.800;2023-12-20T00:16:17;18.40;;;3.60;;
19814;SDS011;10067;53.092;8.800;2023-12-20T00:18:43;22.83;;;3.30;;
19814;SDS011;10067;53.092;8.800;2023-12-20T00:21:10;16.37;;;3.53;;
19814;SDS011;10067;53.092;8.800;2023-12-20T00:23:36;19.33;;;3.10;;
19814;SDS011;10067;53.092;8.800;2023-12-20T00:26:03;12.80;;;3.00;;
19814;SDS011;10067;53.092;8.800;2023-12-20T00:28:29;16.70;;;3.27;;
19814;SDS011;10067;53.092;8.800;2023-12-20T00:30:55;12.50;;;2.57;;
19814;SDS011;10067;53.092;8.800;2023-12-20T00:33:23;16.57;;;2.93;;
19814;SDS011;10067;53.092;8.800;2023-12-20T00:35:50;15.23;;;2.63;;
19814;SDS011;10067;53.092;8.800;2023-12-20T00:38:16;20.67;;;2.80;;
19814;SDS011;10067;53.092;8.800;2023-12-20T00:40:43;24.10;;;2.97;;
19814;SDS011;10067;53.092;8.800;2023-12-20T00:43:09;17.33;;;3.27;;
19814;SDS011;10067;53.092;8.800;2023-12-20T00:45:36;15.83;;;2.90;;
19814;SDS011;10067;53.092;8.800;2023-12-20T00:48:04;17.43;;;2.57;;
19814;SDS011;10067;53.092;8.800;2023-12-20T00:50:31;13.50;;;3.43;;
19814;SDS011;10067;53.092;8.800;2023-12-20T00:52:58;20.07;;;3.33;;
19814;SDS011;10067;53.092;8.800;2023-12-20T00:55:24;16.23;;;2.60;;
19814;SDS011;10067;53.092;8.800;2023-12-20T00:57:49;11.77;;;2.80;;
19814;SDS011;10067;53.092;8.800;2023-12-20T01:00:16;16.80;;;3.40;;
19814;SDS011;10067;53.092;8.800;2023-12-20T01:02:43;13.30;;;2.73;;
19814;SDS011;10067;53.092;8.800;2023-12-20T01:05:09;11.00;;;2.53;;
19814;SDS011;10067;53.092;8.800;2023-12-20T01:07:37;20.70;;;3.23;;
19814;SDS011;10067;53.092;8.800;2023-12-20T01:10:03;26.47;;;3.90;;
19814;SDS011;10067;53.092;8.800;2023-12-20T01:12:30;15.43;;;2.90;;
19814;SDS011;10067;53.092;8.800;2023-12-20T01:14:56;21.20;;;3.83;;
19814;SDS011;10067;53.092;8.800;2023-12-20T01:17:23;14.37;;;2.80;;
19814;SDS011;10067;53.092;8.800;2023-12-20T01:19:50;20.70;;;3.07;;
19814;SDS011;10067;53.092;8.800;2023-12-20T01:22:16;14.17;;;3.07;;
19814;SDS011;10067;53.092;8.800;2023-12-20T01:24:44;19.07;;;3.03;;
19814;SDS011;10067;53.092;8.800;2023-12-20T01:27:11;19.20;;;3.50;;
19814;SDS011;10067;53.092;8.800;2023-12-20T01:29:37;21.57;;;3.03;;
19814;SDS011;10067;53.092;8.800;2023-12-20T01:32:04;16.60;;;3.23;;
19814;SDS011;10067;53.092;8.800;2023-12-20T01:34:30;17.23;;;2.70;;
19814;SDS011;10067;53.092;8.800;2023-12-20T01:36:56;12.80;;;2.63;;
19814;SDS011;10067;53.092;8.800;2023-12-20T01:39:23;11.87;;;2.50;;
19814;SDS011;10067;53.092;8.800;2023-12-20T01:41:51;14.07;;;2.80;;
19814;SDS011;10067;53.092;8.800;2023-12-20T01:44:17;10.40;;;2.67;;
19814;SDS011;10067;53.092;8.800;2023-12-20T01:46:43;19.47;;;3.13;;
19814;SDS011;10067;53.092;8.800;2023-12-20T01:49:10;16.20;;;3.03;;
19814;SDS011;10067;53.092;8.800;2023-12-20T01:51:36;17.47;;;3.23;;
19814;SDS011;10067;53.092;8.800;2023-12-20T01:54:03;15.77;;;3.40;;
19814;SDS011;10067;53.092;8.800;2023-12-20T01:56:29;18.43;;;3.20;;
19814;SDS011;10067;53.092;8.800;2023-12-20T01:58:58;21.17;;;3.37;;
19814;SDS011;10067;53.092;8.800;2023-12-20T02:01:24;10.50;;;2.60;;
19814;SDS011;10067;53.092;8.800;2023-12-20T02:03:53;15.70;;;2.90;;
19814;SDS011;10067;53.092;8.800;2023-12-20T02:06:19;14.50;;;3.20;;
19814;SDS011;10067;53.092;8.800;2023-12-20T02:08:46;23.27;;;3.30;;
19814;SDS011;10067;53.092;8.800;2023-12-20T02:11:12;14.83;;;2.80;;
19814;SDS011;10067;53.092;8.800;2023-12-20T02:13:39;16.63;;;2.90;;
19814;SDS011;10067;53.092;8.800;2023-12-20T02:16:07;16.83;;;2.83;;
19814;SDS011;10067;53.092;8.800;2023-12-20T02:18:33;12.07;;;2.33;;
19814;SDS011;10067;53.092;8.800;2023-12-20T02:21:00;21.73;;;3.43;;
19814;SDS011;10067;53.092;8.800;2023-12-20T02:23:27;12.70;;;2.60;;
19814;SDS011;10067;53.092;8.800;2023-12-20T02:25:54;17.00;;;2.83;;
19814;SDS011;10067;53.092;8.800;2023-12-20T02:28:21;25.27;;;3.70;;
19814;SDS011;10067;53.092;8.800;2023-12-20T02:30:48;12.10;;;2.80;;
19814;SDS011;10067;53.092;8.800;2023-12-20T02:33:15;18.57;;;3.23;;
19814;SDS011;10067;53.092;8.800;2023-12-20T02:35:41;17.13;;;2.80;;
19814;SDS011;10067;53.092;8.800;2023-12-20T02:38:08;15.67;;;3.10;;
19814;SDS011;10067;53.092;8.800;2023-12-20T02:40:36;21.50;;;3.23;;
19814;SDS011;10067;53.092;8.800;2023-12-20T02:43:02;15.10;;;2.83;;
19814;SDS011;10067;53.092;8.800;2023-12-20T02:45:29;17.77;;;2.70;;
19814;SDS011;10067;53.092;8.800;2023-12-20T02:47:55;14.90;;;3.13;;
19814;SDS011;10067;53.092;8.800;2023-12-20T02:50:21;18.53;;;2.97;;
19814;SDS011;10067;53.092;8.800;2023-12-20T02:52:48;22.70;;;3.03;;
19814;SDS011;10067;53.092;8.800;2023-12-20T02:55:15;15.83;;;3.10;;
19814;SDS011;10067;53.092;8.800;2023-12-20T02:57:42;22.83;;;3.77;;
19814;SDS011;10067;53.092;8.800;2023-12-20T03:00:09;19.03;;;3.23;;
19814;SDS011;10067;53.092;8.800;2023-12-20T03:02:35;22.17;;;2.83;;
19814;SDS011;10067;53.092;8.800;2023-12-20T03:05:02;19.60;;;3.00;;
19814;SDS011;10067;53.092;8.800;2023-12-20T03:07:29;20.73;;;2.80;;
19814;SDS011;10067;53.092;8.800;2023-12-20T03:09:55;13.80;;;2.93;;
19814;SDS011;10067;53.092;8.800;2023-12-20T03:12:21;21.13;;;3.33;;
19814;SDS011;10067;53.092;8.800;2023-12-20T03:14:49;21.40;;;3.00;;
19814;SDS011;10067;53.092;8.800;2023-12-20T03:17:16;17.70;;;3.13;;
19814;SDS011;10067;53.092;8.800;2023-12-20T03:19:42;15.17;;;3.47;;
19814;SDS011;10067;53.092;8.800;2023-12-20T03:22:09;20.23;;;3.30;;
19814;SDS011;10067;53.092;8.800;2023-12-20T03:24:35;11.10;;;2.60;;
19814;SDS011;10067;53.092;8.800;2023-12-20T03:27:02;21.27;;;3.30;;
19814;SDS011;10067;53.092;8.800;2023-12-20T03:29:28;15.57;;;3.27;;
19814;SDS011;10067;53.092;8.800;2023-12-20T03:31:56;19.50;;;3.83;;
19814;SDS011;10067;53.092;8.800;2023-12-20T03:34:23;17.27;;;2.93;;
19814;SDS011;10067;53.092;8.800;2023-12-20T03:36:49;12.17;;;2.83;;
19814;SDS011;10067;53.092;8.800;2023-12-20T03:39:15;14.77;;;2.40;;
19814;SDS011;10067;53.092;8.800;2023-12-20T03:41:42;17.40;;;3.03;;
19814;SDS011;10067;53.092;8.800;2023-12-20T03:44:08;12.73;;;3.03;;
19814;SDS011;10067;53.092;8.800;2023-12-20T03:46:35;14.13;;;3.80;;
19814;SDS011;10067;53.092;8.800;2023-12-20T03:49:03;18.83;;;3.20;;
19814;SDS011;10067;53.092;8.800;2023-12-20T03:51:29;18.83;;;3.80;;
19814;SDS011;10067;53.092;8.800;2023-12-20T03:53:56;26.33;;;4.57;;
19814;SDS011;10067;53.092;8.800;2023-12-20T03:56:22;14.60;;;3.70;;
19814;SDS011;10067;53.092;8.800;2023-12-20T03:58:48;16.53;;;3.90;;
19814;SDS011;10067;53.092;8.800;2023-12-20T04:01:15;22.17;;;4.07;;
19814;SDS011;10067;53.092;8.800;2023-12-20T04:03:41;24.20;;;4.03;;
19814;SDS011;10067;53.092;8.800;2023-12-20T04:06:09;19.07;;;3.80;;
19814;SDS011;10067;53.092;8.800;2023-12-20T04:08:35;21.93;;;4.50;;
19814;SDS011;10067;53.092;8.800;2023-12-20T04:11:02;23.37;;;4.43;;
19814;SDS011;10067;53.092;8.800;2023-12-20T04:13:29;21.40;;;4.23;;
19814;SDS011;10067;53.092;8.800;2023-12-20T04:15:56;17.63;;;4.50;;
19814;SDS011;10067;53.092;8.800;2023-12-20T04:18:22;26.20;;;5.80;;
19814;SDS011;10067;53.092;8.800;2023-12-20T04:20:49;22.47;;;5.70;;
19814;SDS011;10067;53.092;8.800;2023-12-20T04:23:18;26.03;;;4.30;;
19814;SDS011;10067;53.092;8.800;2023-12-20T04:25:44;21.20;;;4.73;;
19814;SDS011;10067;53.092;8.800;2023-12-20T04:28:11;20.47;;;4.47;;
19814;SDS011;10067;53.092;8.800;2023-12-20T04:30:38;21.97;;;4.27;;
19814;SDS011;10067;53.092;8.800;2023-12-20T04:33:04;23.93;;;4.27;;
19814;SDS011;10067;53.092;8.800;2023-12-20T04:35:30;22.20;;;4.43;;
19814;SDS011;10067;53.092;8.800;2023-12-20T04:37:57;23.57;;;4.73;;
19814;SDS011;10067;53.092;8.800;2023-12-20T04:40:24;19.40;;;5.17;;
19814;SDS011;10067;53.092;8.800;2023-12-20T04:42:51;22.40;;;5.13;;
19814;SDS011;10067;53.092;8.800;2023-12-20T04:45:17;17.20;;;5.53;;
19814;SDS011;10067;53.092;8.800;2023-12-20T04:47:44;23.90;;;5.47;;
19814;SDS011;10067;53.092;8.800;2023-12-20T04:50:12;14.77;;;5.17;;
19814;SDS011;10067;53.092;8.800;2023-12-20T04:52:39;27.13;;;6.57;;
19814;SDS011;10067;53.092;8.800;2023-12-20T04:55:06;22.47;;;6.30;;
19814;SDS011;10067;53.092;8.800;2023-12-20T04:57:35;18.73;;;6.37;;
19814;SDS011;10067;53.092;8.800;2023-12-20T05:00:01;22.43;;;5.67;;
19814;SDS011;10067;53.092;8.800;2023-12-20T05:02:28;16.43;;;5.77;;
19814;SDS011;10067;53.092;8.800;2023-12-20T05:04:54;25.57;;;5.10;;
19814;SDS011;10067;53.092;8.800;2023-12-20T05:07:21;16.33;;;4.40;;
19814;SDS011;10067;53.092;8.800;2023-12-20T05:09:47;28.33;;;5.50;;
19814;SDS011;10067;53.092;8.800;2023-12-20T05:12:13;16.03;;;4.40;;
19814;SDS011;10067;53.092;8.800;2023-12-20T05:14:41;31.50;;;6.00;;
19814;SDS011;10067;53.092;8.800;2023-12-20T05:17:08;25.83;;;5.50;;
19814;SDS011;10067;53.092;8.800;2023-12-20T05:19:34;24.97;;;5.83;;
19814;SDS011;10067;53.092;8.800;2023-12-20T05:22:01;23.13;;;6.27;;
19814;SDS011;10067;53.092;8.800;2023-12-20T05:24:27;20.77;;;4.97;;
19814;SDS011;10067;53.092;8.800;2023-12-20T05:26:54;28.93;;;4.93;;
19814;SDS011;10067;53.092;8.800;2023-12-20T05:29:20;16.93;;;4.27;;
19814;SDS011;10067;53.092;8.800;2023-12-20T05:31:48;17.93;;;5.87;;
19814;SDS011;10067;53.092;8.800;2023-12-20T05:34:14;23.20;;;5.30;;
19814;SDS011;10067;53.092;8.800;2023-12-20T05:36:40;22.77;;;4.87;;
19814;SDS011;10067;53.092;8.800;2023-12-20T05:39:07;29.73;;;4.73;;
19814;SDS011;10067;53.092;8.800;2023-12-20T05:41:33;20.50;;;4.53;;
19814;SDS011;10067;53.092;8.800;2023-12-20T05:44:00;23.27;;;4.33;;
19814;SDS011;10067;53.092;8.800;2023-12-20T05:46:26;25.20;;;4.70;;
19814;SDS011;10067;53.092;8.800;2023-12-20T05:48:54;22.53;;;4.10;;
19814;SDS011;10067;53.092;8.800;2023-12-20T05:51:20;26.27;;;5.37;;
19814;SDS011;10067;53.092;8.800;2023-12-20T05:53:47;26.60;;;4.57;;
19814;SDS011;10067;53.092;8.800;2023-12-20T05:56:14;25.43;;;5.00;;
19814;SDS011;10067;53.092;8.800;2023-12-20T05:58:41;30.00;;;6.50;;
19814;SDS011;10067;53.092;8.800;2023-12-20T06:01:08;25.90;;;4.87;;
19814;SDS011;10067;53.092;8.800;2023-12-20T06:03:35;19.37;;;4.47;;
19814;SDS011;10067;53.092;8.800;2023-12-20T06:06:05;31.97;;;7.20;;
19814;SDS011;10067;53.092;8.800;2023-12-20T06:08:32;25.50;;;6.50;;
19814;SDS011;10067;53.092;8.800;2023-12-20T06:10:58;28.43;;;4.87;;
19814;SDS011;10067;53.092;8.800;2023-12-20T06:13:25;24.90;;;6.43;;
19814;SDS011;10067;53.092;8.800;2023-12-20T06:15:52;28.17;;;6.37;;
19814;SDS011;10067;53.092;8.800;2023-12-20T06:18:18;25.77;;;6.17;;
19814;SDS011;10067;53.092;8.800;2023-12-20T06:20:44;27.33;;;8.37;;
19814;SDS011;10067;53.092;8.800;2023-12-20T06:23:12;27.73;;;5.63;;
19814;SDS011;10067;53.092;8.800;2023-12-20T06:25:39;21.00;;;5.07;;
19814;SDS011;10067;53.092;8.800;2023-12-20T06:28:05;24.37;;;4.77;;
19814;SDS011;10067;53.092;8.800;2023-12-20T06:30:31;31.00;;;5.83;;
19814;SDS011;10067;53.092;8.800;2023-12-20T06:32:59;26.63;;;4.97;;
19814;SDS011;10067;53.092;8.800;2023-12-20T06:35:25;26.10;;;4.53;;
19814;SDS011;10067;53.092;8.800;2023-12-20T06:37:51;26.30;;;6.17;;
19814;SDS011;10067;53.092;8.800;2023-12-20T06:40:19;25.73;;;6.53;;
19814;SDS011;10067;53.092;8.800;2023-12-20T06:42:46;22.53;;;5.97;;
19814;SDS011;10067;53.092;8.800;2023-12-20T06:45:12;31.37;;;5.80;;
19814;SDS011;10067;53.092;8.800;2023-12-20T06:47:39;27.37;;;6.07;;
19814;SDS011;10067;53.092;8.800;2023-12-20T06:50:05;33.73;;;5.07;;
19814;SDS011;10067;53.092;8.800;2023-12-20T06:52:33;21.30;;;4.73;;
19814;SDS011;10067;53.092;8.800;2023-12-20T06:54:59;25.13;;;4.80;;
19814;SDS011;10067;53.092;8.800;2023-12-20T06:57:27;20.40;;;4.53;;
19814;SDS011;10067;53.092;8.800;2023-12-20T06:59:54;30.57;;;5.73;;
19814;SDS011;10067;53.092;8.800;2023-12-20T07:02:20;27.10;;;5.27;;
19814;SDS011;10067;53.092;8.800;2023-12-20T07:04:47;21.20;;;4.80;;
19814;SDS011;10067;53.092;8.800;2023-12-20T07:07:14;28.40;;;6.20;;
19814;SDS011;10067;53.092;8.800;2023-12-20T07:09:40;33.93;;;5.87;;
19814;SDS011;10067;53.092;8.800;2023-12-20T07:12:08;35.83;;;6.03;;
19814;SDS011;10067;53.092;8.800;2023-12-20T07:14:34;26.03;;;4.90;;
19814;SDS011;10067;53.092;8.800;2023-12-20T07:17:01;24.43;;;5.90;;
19814;SDS011;10067;53.092;8.800;2023-12-20T07:19:28;28.03;;;5.97;;
19814;SDS011;10067;53.092;8.800;2023-12-20T07:21:54;30.03;;;5.57;;
19814;SDS011;10067;53.092;8.800;2023-12-20T07:24:20;27.23;;;5.10;;
19814;SDS011;10067;53.092;8.800;2023-12-20T07:26:47;29.70;;;5.60;;
19814;SDS011;10067;53.092;8.800;2023-12-20T07:29:13;25.87;;;5.37;;
19814;SDS011;10067;53.092;8.800;2023-12-20T07:31:41;36.00;;;5.80;;
19814;SDS011;10067;53.092;8.800;2023-12-20T07:34:07;31.97;;;5.70;;
19814;SDS011;10067;53.092;8.800;2023-12-20T07:36:34;25.80;;;6.13;;
19814;SDS011;10067;53.092;8.800;2023-12-20T07:39:00;34.60;;;6.20;;
19814;SDS011;10067;53.092;8.800;2023-12-20T07:41:26;30.70;;;5.53;;
19814;SDS011;10067;53.092;8.800;2023-12-20T07:43:53;32.77;;;5.67;;
19814;SDS011;10067;53.092;8.800;2023-12-20T07:46:20;37.20;;;6.03;;
19814;SDS011;10067;53.092;8.800;2023-12-20T07:48:49;29.97;;;6.20;;
19814;SDS011;10067;53.092;8.800;2023-12-20T07:51:15;28.70;;;5.40;;
19814;SDS011;10067;53.092;8.800;2023-12-20T07:53:41;26.70;;;5.23;;
19814;SDS011;10067;53.092;8.800;2023-12-20T07:56:14;27.67;;;5.47;;
19814;SDS011;10067;53.092;8.800;2023-12-20T07:58:41;35.67;;;6.07;;
19814;SDS011;10067;53.092;8.800;2023-12-20T08:01:07;23.80;;;5.10;;
19814;SDS011;10067;53.092;8.800;2023-12-20T08:03:34;22.53;;;5.13;;
19814;SDS011;10067;53.092;8.800;2023-12-20T08:06:02;29.13;;;5.93;;
19814;SDS011;10067;53.092;8.800;2023-12-20T08:08:28;31.33;;;6.47;;
19814;SDS011;10067;53.092;8.800;2023-12-20T08:10:55;25.03;;;6.13;;
19814;SDS011;10067;53.092;8.800;2023-12-20T08:13:22;27.00;;;5.93;;
19814;SDS011;10067;53.092;8.800;2023-12-20T08:15:51;26.27;;;5.30;;
19814;SDS011;10067;53.092;8.800;2023-12-20T08:18:17;28.40;;;5.00;;
19814;SDS011;10067;53.092;8.800;2023-12-20T08:20:44;27.70;;;5.47;;
19814;SDS011;10067;53.092;8.800;2023-12-20T08:23:12;32.07;;;5.57;;
19814;SDS011;10067;53.092;8.800;2023-12-20T08:25:38;22.17;;;5.10;;
19814;SDS011;10067;53.092;8.800;2023-12-20T08:28:05;27.40;;;4.60;;
19814;SDS011;10067;53.092;8.800;2023-12-20T08:30:31;26.60;;;5.63;;
19814;SDS011;10067;53.092;8.800;2023-12-20T08:32:59;23.30;;;4.50;;
19814;SDS011;10067;53.092;8.800;2023-12-20T08:35:25;19.70;;;3.60;;
19814;SDS011;10067;53.092;8.800;2023-12-20T08:37:52;27.67;;;5.67;;
19814;SDS011;10067;53.092;8.800;2023-12-20T08:40:19;26.80;;;5.20;;
19814;SDS011;10067;53.092;8.800;2023-12-20T08:42:46;30.30;;;5.93;;
19814;SDS011;10067;53.092;8.800;2023-12-20T08:45:13;28.50;;;5.37;;
19814;SDS011;10067;53.092;8.800;2023-12-20T08:47:39;21.37;;;5.47;;
19814;SDS011;10067;53.092;8.800;2023-12-20T08:50:06;20.05;;;7.60;;
19814;SDS011;10067;53.092;8.800;2023-12-20T08:52:33;25.53;;;6.07;;
19814;SDS011;10067;53.092;8.800;2023-12-20T08:54:59;24.53;;;4.87;;
19814;SDS011;10067;53.092;8.800;2023-12-20T08:57:27;21.10;;;5.00;;
19814;SDS011;10067;53.092;8.800;2023-12-20T08:59:53;23.23;;;5.03;;
19814;SDS011;10067;53.092;8.800;2023-12-20T09:02:19;24.37;;;5.57;;
19814;SDS011;10067;53.092;8.800;2023-12-20T09:04:46;27.33;;;5.17;;
19814;SDS011;10067;53.092;8.800;2023-12-20T09:07:22;21.17;;;5.20;;
19814;SDS011;10067;53.092;8.800;2023-12-20T09:09:48;21.20;;;5.23;;
19814;SDS011;10067;53.092;8.800;2023-12-20T09:12:14;16.27;;;4.57;;
19814;SDS011;10067;53.092;8.800;2023-12-20T09:14:42;30.13;;;4.37;;
19814;SDS011;10067;53.092;8.800;2023-12-20T09:17:09;24.10;;;4.40;;
19814;SDS011;10067;53.092;8.800;2023-12-20T09:19:37;25.37;;;4.30;;
19814;SDS011;10067;53.092;8.800;2023-12-20T09:22:03;26.40;;;5.77;;
19814;SDS011;10067;53.092;8.800;2023-12-20T09:24:29;28.90;;;5.87;;
19814;SDS011;10067;53.092;8.800;2023-12-20T09:26:56;26.43;;;4.73;;
19814;SDS011;10067;53.092;8.800;2023-12-20T09:29:22;26.03;;;4.00;;
19814;SDS011;10067;53.092;8.800;2023-12-20T09:31:51;23.63;;;4.87;;
19814;SDS011;10067;53.092;8.800;2023-12-20T09:34:17;20.60;;;4.40;;
19814;SDS011;10067;53.092;8.800;2023-12-20T09:36:44;37.17;;;5.13;;
19814;SDS011;10067;53.092;8.800;2023-12-20T09:39:11;24.80;;;4.97;;
19814;SDS011;10067;53.092;8.800;2023-12-20T09:41:37;22.80;;;4.43;;
19814;SDS011;10067;53.092;8.800;2023-12-20T09:44:07;25.37;;;5.90;;
19814;SDS011;10067;53.092;8.800;2023-12-20T09:46:35;22.40;;;4.10;;
19814;SDS011;10067;53.092;8.800;2023-12-20T09:49:05;27.80;;;5.27;;
19814;SDS011;10067;53.092;8.800;2023-12-20T09:51:32;21.30;;;3.90;;
19814;SDS011;10067;53.092;8.800;2023-12-20T09:53:58;14.47;;;3.50;;
19814;SDS011;10067;53.092;8.800;2023-12-20T09:56:26;17.37;;;3.80;;
19814;SDS011;10067;53.092;8.800;2023-12-20T09:58:52;11.73;;;3.43;;
19814;SDS011;10067;53.092;8.800;2023-12-20T10:01:19;10.03;;;2.97;;
19814;SDS011;10067;53.092;8.800;2023-12-20T10:03:46;8.10;;;2.53;;
19814;SDS011;10067;53.092;8.800;2023-12-20T10:06:13;5.33;;;1.67;;
19814;SDS011;10067;53.092;8.800;2023-12-20T10:08:40;7.13;;;1.53;;
19814;SDS011;10067;53.092;8.800;2023-12-20T10:11:06;8.20;;;1.97;;
19814;SDS011;10067;53.092;8.800;2023-12-20T10:13:32;7.43;;;1.60;;
19814;SDS011;10067;53.092;8.800;2023-12-20T10:15:59;7.97;;;3.83;;
19814;SDS011;10067;53.092;8.800;2023-12-20T10:18:25;8.77;;;2.90;;
19814;SDS011;10067;53.092;8.800;2023-12-20T10:20:54;8.77;;;4.57;;
19814;SDS011;10067;53.092;8.800;2023-12-20T10:23:22;10.37;;;2.23;;
19814;SDS011;10067;53.092;8.800;2023-12-20T10:25:58;3.27;;;1.00;;
19814;SDS011;10067;53.092;8.800;2023-12-20T10:28:25;4.87;;;1.30;;
19814;SDS011;10067;53.092;8.800;2023-12-20T10:30:53;5.00;;;1.47;;
19814;SDS011;10067;53.092;8.800;2023-12-20T10:33:23;7.73;;;1.70;;
19814;SDS011;10067;53.092;8.800;2023-12-20T10:35:49;10.30;;;1.60;;
19814;SDS011;10067;53.092;8.800;2023-12-20T10:38:16;6.93;;;1.60;;
19814;SDS011;10067;53.092;8.800;2023-12-20T10:40:44;6.60;;;1.90;;
19814;SDS011;10067;53.092;8.800;2023-12-20T10:43:11;5.47;;;1.60;;
19814;SDS011;10067;53.092;8.800;2023-12-20T10:45:38;7.50;;;1.53;;
19814;SDS011;10067;53.092;8.800;2023-12-20T10:48:04;6.53;;;1.87;;
19814;SDS011;10067;53.092;8.800;2023-12-20T10:50:31;5.50;;;1.20;;
19814;SDS011;10067;53.092;8.800;2023-12-20T10:52:58;5.73;;;1.60;;
19814;SDS011;10067;53.092;8.800;2023-12-20T10:55:24;12.30;;;2.03;;
19814;SDS011;10067;53.092;8.800;2023-12-20T10:57:52;7.90;;;1.50;;
19814;SDS011;10067;53.092;8.800;2023-12-20T11:00:21;4.13;;;1.08;;
19814;SDS011;10067;53.092;8.800;2023-12-20T11:02:48;7.38;;;1.42;;
19814;SDS011;10067;53.092;8.800;2023-12-20T11:05:18;5.55;;;1.42;;
19814;SDS011;10067;53.092;8.800;2023-12-20T11:07:47;6.72;;;1.55;;
19814;SDS011;10067;53.092;8.800;2023-12-20T11:10:16;8.00;;;1.63;;
19814;SDS011;10067;53.092;8.800;2023-12-20T11:12:46;9.35;;;2.83;;
19814;SDS011;10067;53.092;8.800;2023-12-20T11:15:16;6.63;;;1.67;;
19814;SDS011;10067;53.092;8.800;2023-12-20T11:17:44;6.53;;;1.75;;
19814;SDS011;10067;53.092;8.800;2023-12-20T11:20:11;8.10;;;2.05;;
19814;SDS011;10067;53.092;8.800;2023-12-20T11:22:38;7.60;;;2.03;;
19814;SDS011;10067;53.092;8.800;2023-12-20T11:25:07;7.47;;;1.73;;
19814;SDS011;10067;53.092;8.800;2023-12-20T11:27:34;6.55;;;1.63;;
19814;SDS011;10067;53.092;8.800;2023-12-20T11:30:02;5.88;;;1.67;;
19814;SDS011;10067;53.092;8.800;2023-12-20T11:32:32;5.95;;;1.90;;
19814;SDS011;10067;53.092;8.800;2023-12-20T11:35:00;7.80;;;1.80;;
19814;SDS011;10067;53.092;8.800;2023-12-20T11:37:30;9.40;;;2.20;;
19814;SDS011;10067;53.092;8.800;2023-12-20T11:40:00;7.20;;;1.90;;
19814;SDS011;10067;53.092;8.800;2023-12-20T11:42:27;10.15;;;1.90;;
19814;SDS011;10067;53.092;8.800;2023-12-20T11:44:54;10.02;;;2.08;;
19814;SDS011;10067;53.092;8.800;2023-12-20T11:47:22;7.95;;;1.80;;
19814;SDS011;10067;53.092;8.800;2023-12-20T11:49:50;7.88;;;2.10;;
19814;SDS011;10067;53.092;8.800;2023-12-20T11:52:16;6.78;;;1.75;;
19814;SDS011;10067;53.092;8.800;2023-12-20T11:54:43;10.80;;;2.20;;
19814;SDS011;10067;53.092;8.800;2023-12-20T11:57:09;8.00;;;2.10;;
19814;SDS011;10067;53.092;8.800;2023-12-20T11:59:36;9.32;;;2.30;;
19814;SDS011;10067;53.092;8.800;2023-12-20T12:02:02;10.82;;;2.13;;
19814;SDS011;10067;53.092;8.800;2023-12-20T12:04:29;49.25;;;23.42;;
19814;SDS011;10067;53.092;8.800;2023-12-20T12:06:56;55.95;;;22.50;;
19814;SDS011;10067;53.092;8.800;2023-12-20T12:09:23;15.48;;;3.58;;
19814;SDS011;10067;53.092;8.800;2023-12-20T12:11:49;12.00;;;2.25;;
19814;SDS011;10067;53.092;8.800;2023-12-20T12:14:15;12.25;;;2.30;;
19814;SDS011;10067;53.092;8.800;2023-12-20T12:16:42;9.95;;;2.90;;
19814;SDS011;10067;53.092;8.800;2023-12-20T12:19:14;14.85;;;2.65;;
19814;SDS011;10067;53.092;8.800;2023-12-20T12:21:45;10.52;;;2.97;;
19814;SDS011;10067;53.092;8.800;2023-12-20T12:24:13;14.15;;;3.50;;
19814;SDS011;10067;53.092;8.800;2023-12-20T12:26:40;12.05;;;2.58;;
19814;SDS011;10067;53.092;8.800;2023-12-20T12:29:07;16.00;;;3.08;;
19814;SDS011;10067;53.092;8.800;2023-12-20T12:31:33;16.75;;;2.85;;
19814;SDS011;10067;53.092;8.800;2023-12-20T12:33:59;17.70;;;3.20;;
19814;SDS011;10067;53.092;8.800;2023-12-20T12:36:27;13.18;;;2.72;;
19814;SDS011;10067;53.092;8.800;2023-12-20T12:38:55;17.45;;;3.58;;
19814;SDS011;10067;53.092;8.800;2023-12-20T12:41:23;12.75;;;2.97;;
19814;SDS011;10067;53.092;8.800;2023-12-20T12:43:50;17.42;;;3.03;;
19814;SDS011;10067;53.092;8.800;2023-12-20T12:46:16;14.77;;;2.53;;
19814;SDS011;10067;53.092;8.800;2023-12-20T12:48:43;14.80;;;3.75;;
19814;SDS011;10067;53.092;8.800;2023-12-20T12:51:10;14.45;;;2.90;;
19814;SDS011;10067;53.092;8.800;2023-12-20T12:53:38;16.77;;;2.90;;
19814;SDS011;10067;53.092;8.800;2023-12-20T12:56:05;20.08;;;3.38;;
19814;SDS011;10067;53.092;8.800;2023-12-20T12:58:33;13.32;;;3.03;;
19814;SDS011;10067;53.092;8.800;2023-12-20T13:01:00;14.77;;;3.03;;
19814;SDS011;10067;53.092;8.800;2023-12-20T13:03:26;22.20;;;3.67;;
19814;SDS011;10067;53.092;8.800;2023-12-20T13:05:52;13.75;;;3.10;;
19814;SDS011;10067;53.092;8.800;2023-12-20T13:08:19;20.52;;;3.30;;
19814;SDS011;10067;53.092;8.800;2023-12-20T13:10:45;17.92;;;3.17;;
19814;SDS011;10067;53.092;8.800;2023-12-20T13:13:11;11.02;;;2.92;;
19814;SDS011;10067;53.092;8.800;2023-12-20T13:15:39;16.95;;;3.35;;
19814;SDS011;10067;53.092;8.800;2023-12-20T13:18:06;14.77;;;2.72;;
19814;SDS011;10067;53.092;8.800;2023-12-20T13:20:32;18.02;;;3.83;;
19814;SDS011;10067;53.092;8.800;2023-12-20T13:22:59;19.13;;;3.42;;
19814;SDS011;10067;53.092;8.800;2023-12-20T13:25:25;14.98;;;2.70;;
19814;SDS011;10067;53.092;8.800;2023-12-20T13:27:53;14.60;;;2.90;;
19814;SDS011;10067;53.092;8.800;2023-12-20T13:30:19;16.08;;;3.30;;
19814;SDS011;10067;53.092;8.800;2023-12-20T13:32:47;14.00;;;3.50;;
19814;SDS011;10067;53.092;8.800;2023-12-20T13:35:14;10.85;;;2.97;;
19814;SDS011;10067;53.092;8.800;2023-12-20T13:37:40;12.85;;;3.30;;
19814;SDS011;10067;53.092;8.800;2023-12-20T13:40:07;13.73;;;2.97;;
19814;SDS011;10067;53.092;8.800;2023-12-20T13:42:34;21.05;;;3.28;;
19814;SDS011;10067;53.092;8.800;2023-12-20T13:45:00;11.55;;;2.72;;
19814;SDS011;10067;53.092;8.800;2023-12-20T13:47:27;16.67;;;3.20;;
19814;SDS011;10067;53.092;8.800;2023-12-20T13:49:56;15.07;;;3.72;;
19814;SDS011;10067;53.092;8.800;2023-12-20T13:52:23;19.75;;;3.33;;
19814;SDS011;10067;53.092;8.800;2023-12-20T13:54:49;18.48;;;3.03;;
19814;SDS011;10067;53.092;8.800;2023-12-20T13:57:15;20.20;;;3.58;;
19814;SDS011;10067;53.092;8.800;2023-12-20T13:59:42;17.02;;;3.15;;
19814;SDS011;10067;53.092;8.800;2023-12-20T14:02:08;13.27;;;3.65;;
19814;SDS011;10067;53.092;8.800;2023-12-20T14:04:35;20.20;;;4.05;;
19814;SDS011;10067;53.092;8.800;2023-12-20T14:07:02;16.65;;;3.58;;
19814;SDS011;10067;53.092;8.800;2023-12-20T14:09:29;24.70;;;4.15;;
19814;SDS011;10067;53.092;8.800;2023-12-20T14:11:55;15.90;;;3.20;;
19814;SDS011;10067;53.092;8.800;2023-12-20T14:14:22;14.02;;;3.30;;
19814;SDS011;10067;53.092;8.800;2023-12-20T14:16:48;22.05;;;3.40;;
19814;SDS011;10067;53.092;8.800;2023-12-20T14:19:15;20.15;;;4.00;;
19814;SDS011;10067;53.092;8.800;2023-12-20T14:21:41;24.45;;;4.00;;
19814;SDS011;10067;53.092;8.800;2023-12-20T14:24:09;20.33;;;3.67;;
19814;SDS011;10067;53.092;8.800;2023-12-20T14:26:35;21.08;;;3.60;;
19814;SDS011;10067;53.092;8.800;2023-12-20T14:29:02;23.02;;;4.85;;
19814;SDS011;10067;53.092;8.800;2023-12-20T14:31:29;20.00;;;3.97;;
19814;SDS011;10067;53.092;8.800;2023-12-20T14:33:55;22.15;;;3.25;;